createdAt,value
2022-11-26T00:02:30.654Z,71.50
2022-11-26T00:05:00.450Z,71.50
2022-11-26T00:07:31.801Z,71.50
2022-11-26T00:10:02.208Z,71.40
2022-11-26T00:12:34.754Z,71.50
2022-11-26T00:15:15.842Z,71.50
2022-11-26T00:17:44.177Z,71.50
2022-11-26T00:20:13.265Z,71.50
2022-11-26T00:22:44.003Z,71.60
2022-11-26T00:25:19.183Z,71.40
2022-11-26T00:27:50.198Z,71.50
2022-11-26T00:30:21.552Z,71.60
2022-11-26T00:32:50.394Z,71.60
2022-11-26T00:35:19.942Z,71.60
2022-11-26T00:37:51.786Z,71.70
2022-11-26T00:40:23.782Z,71.60
2022-11-26T00:43:00.056Z,71.60
2022-11-26T00:45:32.075Z,71.50
2022-11-26T00:48:01.775Z,71.70
2022-11-26T00:50:34.717Z,71.60
2022-11-26T00:53:04.099Z,71.60
2022-11-26T00:55:35.591Z,71.60
2022-11-26T00:58:06.235Z,71.70
2022-11-26T01:00:36.328Z,71.70
2022-11-26T01:03:04.865Z,71.90
2022-11-26T01:05:33.605Z,71.70
2022-11-26T01:08:07.919Z,71.80
2022-11-26T01:10:37.044Z,71.50
2022-11-26T01:13:12.131Z,71.70
2022-11-26T01:15:41.433Z,71.80
2022-11-26T01:18:14.849Z,71.70
2022-11-26T01:20:44.276Z,71.70
2022-11-26T01:23:15.180Z,71.70
2022-11-26T01:25:44.116Z,71.90
2022-11-26T01:28:19.495Z,71.80
2022-11-26T01:30:49.336Z,71.70
2022-11-26T01:33:17.746Z,71.80
2022-11-26T01:35:46.246Z,72.00
2022-11-26T01:38:16.213Z,71.80
2022-11-26T01:41:06.389Z,71.80
2022-11-26T01:43:40.872Z,72.00
2022-11-26T01:46:16.403Z,71.90
2022-11-26T01:48:45.539Z,71.80
2022-11-26T01:51:17.440Z,71.80
2022-11-26T01:53:50.995Z,71.90
2022-11-26T01:56:31.712Z,72.00
2022-11-26T01:59:07.456Z,72.00
2022-11-26T02:01:36.470Z,71.80
2022-11-26T02:04:14.223Z,71.90
2022-11-26T02:06:45.022Z,71.90
2022-11-26T02:09:14.466Z,72.00
2022-11-26T02:11:46.187Z,71.90
2022-11-26T02:14:21.529Z,71.90
2022-11-26T02:17:17.569Z,71.80
2022-11-26T02:20:33.734Z,72.00
2022-11-26T02:23:35.838Z,71.90
2022-11-26T02:26:48.840Z,71.90
2022-11-26T02:29:24.940Z,71.90
2022-11-26T02:32:00.860Z,72.10
2022-11-26T02:34:37.943Z,71.90
2022-11-26T02:37:11.724Z,72.00
2022-11-26T02:39:40.242Z,72.00
2022-11-26T02:42:24.463Z,72.10
2022-11-26T02:44:53.962Z,72.00
2022-11-26T02:47:27.600Z,72.00
2022-11-26T02:49:58.159Z,71.90
2022-11-26T02:52:28.957Z,71.80
2022-11-26T02:54:58.221Z,72.00
2022-11-26T02:57:31.581Z,72.00
2022-11-26T03:00:00.197Z,71.80
2022-11-26T03:02:34.409Z,71.90
2022-11-26T03:05:04.409Z,71.90
2022-11-26T03:07:35.511Z,71.90
2022-11-26T03:10:06.103Z,71.90
2022-11-26T03:12:34.552Z,72.00
2022-11-26T03:15:03.377Z,71.90
2022-11-26T03:17:33.356Z,71.90
2022-11-26T03:20:03.710Z,72.00
2022-11-26T03:22:32.165Z,71.90
2022-11-26T03:25:00.606Z,71.90
2022-11-26T03:27:29.039Z,71.80
2022-11-26T03:29:57.546Z,71.90
2022-11-26T03:32:26.296Z,71.70
2022-11-26T03:34:56.092Z,71.90
2022-11-26T03:37:24.463Z,71.90
2022-11-26T03:39:52.759Z,71.70
2022-11-26T03:42:21.099Z,71.80
2022-11-26T03:44:49.591Z,71.90
2022-11-26T03:47:18.137Z,71.70
2022-11-26T03:49:46.585Z,71.80
2022-11-26T03:52:16.339Z,71.90
2022-11-26T03:54:44.663Z,72.00
2022-11-26T03:57:13.266Z,71.90
2022-11-26T03:59:41.660Z,72.00
2022-11-26T04:02:10.152Z,72.00
2022-11-26T04:04:38.760Z,72.00
2022-11-26T04:07:07.617Z,71.90
2022-11-26T04:09:37.555Z,72.00
2022-11-26T04:12:06.175Z,72.10
2022-11-26T04:14:34.666Z,71.90
2022-11-26T04:17:03.075Z,72.00
2022-11-26T04:19:31.734Z,72.00
2022-11-26T04:22:00.155Z,71.90
2022-11-26T04:24:28.648Z,72.00
2022-11-26T04:26:58.349Z,71.90
2022-11-26T04:29:26.909Z,72.10
2022-11-26T04:31:55.305Z,72.10
2022-11-26T04:34:24.168Z,72.00
2022-11-26T04:36:52.448Z,71.90
2022-11-26T04:39:21.012Z,72.00
2022-11-26T04:41:49.510Z,72.20
2022-11-26T04:44:19.130Z,72.10
2022-11-26T04:46:47.462Z,72.20
2022-11-26T04:49:15.892Z,72.00
2022-11-26T04:51:44.223Z,72.00
2022-11-26T04:54:13.395Z,72.10
2022-11-26T04:56:42.028Z,72.20
2022-11-26T04:59:10.565Z,72.20
2022-11-26T05:01:40.310Z,72.10
2022-11-26T05:04:08.873Z,72.20
2022-11-26T05:06:37.131Z,72.30
2022-11-26T05:09:05.414Z,72.00
2022-11-26T05:11:35.564Z,72.20
2022-11-26T05:14:04.267Z,72.10
2022-11-26T05:16:32.772Z,72.10
2022-11-26T05:19:02.517Z,72.00
2022-11-26T05:21:31.210Z,72.20
2022-11-26T05:23:59.487Z,72.00
2022-11-26T05:26:27.835Z,72.30
2022-11-26T05:28:56.065Z,72.10
2022-11-26T05:31:24.414Z,72.10
2022-11-26T05:33:53.004Z,72.20
2022-11-26T05:36:22.977Z,72.20
2022-11-26T05:38:51.253Z,72.20
2022-11-26T05:41:19.713Z,72.30
2022-11-26T05:43:48.095Z,72.40
2022-11-26T05:46:19.135Z,72.40
2022-11-26T05:48:47.645Z,72.30
2022-11-26T05:51:16.172Z,72.50
2022-11-26T05:53:45.925Z,72.40
2022-11-26T05:56:14.223Z,72.30
2022-11-26T05:58:44.256Z,72.40
2022-11-26T06:01:12.723Z,72.30
2022-11-26T06:03:41.980Z,72.20
2022-11-26T06:06:10.712Z,72.30
2022-11-26T06:08:39.050Z,72.20
2022-11-26T06:11:11.382Z,72.10
2022-11-26T06:13:39.899Z,72.30
2022-11-26T06:16:10.589Z,72.20
2022-11-26T06:18:39.896Z,72.20
2022-11-26T06:21:09.759Z,72.20
2022-11-26T06:23:38.708Z,72.30
2022-11-26T06:26:13.895Z,72.20
2022-11-26T06:28:42.509Z,72.10
2022-11-26T06:31:11.238Z,72.20
2022-11-26T06:33:39.887Z,72.30
2022-11-26T06:36:08.795Z,72.20
2022-11-26T06:38:37.286Z,72.30
2022-11-26T06:41:07.760Z,72.30
2022-11-26T06:43:37.731Z,72.40
2022-11-26T06:46:09.106Z,72.30
2022-11-26T06:48:39.320Z,72.40
2022-11-26T06:51:09.421Z,72.40
2022-11-26T06:53:37.733Z,72.30
2022-11-26T06:56:08.372Z,72.50
2022-11-26T06:58:38.715Z,72.30
2022-11-26T07:01:11.118Z,72.50
2022-11-26T07:03:40.138Z,72.30
2022-11-26T07:06:17.233Z,72.50
2022-11-26T07:08:45.882Z,72.30
2022-11-26T07:11:15.522Z,72.40
2022-11-26T07:13:45.535Z,72.20
2022-11-26T07:16:14.675Z,72.30
2022-11-26T07:18:44.151Z,72.20
2022-11-26T07:21:14.333Z,72.20
2022-11-26T07:23:42.913Z,72.30
2022-11-26T07:26:13.435Z,72.30
2022-11-26T07:28:42.634Z,72.30
2022-11-26T07:31:16.926Z,72.20
2022-11-26T07:33:47.332Z,72.30
2022-11-26T07:36:18.362Z,72.30
2022-11-26T07:38:46.946Z,72.20
2022-11-26T07:41:17.600Z,72.30
2022-11-26T07:43:47.383Z,72.20
2022-11-26T07:46:22.018Z,72.30
2022-11-26T07:48:50.934Z,72.40
2022-11-26T07:51:22.013Z,72.40
2022-11-26T07:53:51.445Z,72.50
2022-11-26T07:56:20.845Z,72.30
2022-11-26T07:58:49.394Z,72.30
2022-11-26T08:01:21.658Z,72.30
2022-11-26T08:03:52.281Z,72.20
2022-11-26T08:06:23.063Z,72.20
2022-11-26T08:08:52.011Z,72.40
2022-11-26T08:11:24.155Z,72.30
2022-11-26T08:13:55.450Z,72.30
2022-11-26T08:16:28.697Z,72.20
2022-11-26T08:18:58.996Z,72.30
2022-11-26T08:21:32.141Z,72.20
2022-11-26T08:24:03.612Z,72.20
2022-11-26T08:26:37.115Z,72.20
2022-11-26T08:29:08.087Z,72.20
2022-11-26T08:31:45.251Z,72.20
2022-11-26T08:34:16.280Z,72.20
2022-11-26T08:36:45.516Z,72.10
2022-11-26T08:39:14.567Z,72.10
2022-11-26T08:41:46.178Z,72.10
2022-11-26T08:44:19.562Z,72.10
2022-11-26T08:46:49.979Z,71.90
2022-11-26T08:49:18.750Z,72.10
2022-11-26T08:51:47.055Z,72.00
2022-11-26T08:54:15.399Z,71.90
2022-11-26T08:56:43.858Z,71.70
2022-11-26T08:59:12.227Z,71.90
2022-11-26T09:01:40.972Z,71.80
2022-11-26T09:04:10.791Z,71.90
2022-11-26T09:06:40.914Z,71.80
2022-11-26T09:09:18.016Z,71.80
2022-11-26T09:11:50.716Z,71.90
2022-11-26T09:14:21.068Z,71.70
2022-11-26T09:16:50.409Z,71.80
2022-11-26T09:19:20.658Z,71.70
2022-11-26T09:21:49.324Z,71.70
2022-11-26T09:24:18.222Z,71.50
2022-11-26T09:26:48.550Z,71.50
2022-11-26T09:29:18.503Z,71.40
2022-11-26T09:34:38.648Z,71.60
2022-11-26T09:37:07.389Z,71.50
2022-11-26T09:39:35.739Z,71.30
2022-11-26T09:42:07.876Z,71.30
2022-11-26T09:45:03.022Z,71.40
2022-11-26T09:47:38.447Z,71.20
2022-11-26T09:50:21.460Z,71.20
2022-11-26T09:52:54.948Z,71.20
2022-11-26T09:55:27.040Z,71.20
2022-11-26T09:58:03.703Z,71.20
2022-11-26T10:00:34.563Z,71.10
2022-11-26T10:03:03.312Z,71.20
2022-11-26T10:05:51.046Z,71.10
2022-11-26T10:08:49.380Z,71.10
2022-11-26T10:11:26.539Z,71.00
2022-11-26T10:14:05.078Z,71.00
2022-11-26T10:16:43.949Z,70.90
2022-11-26T10:19:21.611Z,70.80
2022-11-26T10:21:58.991Z,71.00
2022-11-26T10:24:32.568Z,70.90
2022-11-26T10:27:06.444Z,70.80
2022-11-26T10:29:40.606Z,70.80
2022-11-26T10:32:16.490Z,70.80
2022-11-26T10:34:51.715Z,64.40
2022-11-26T10:37:23.282Z,64.00
2022-11-26T10:40:01.029Z,64.40
2022-11-26T10:42:41.742Z,70.70
2022-11-26T10:45:19.567Z,70.70
2022-11-26T10:47:49.824Z,64.40
2022-11-26T10:50:46.740Z,70.70
2022-11-26T10:53:22.913Z,64.30
2022-11-26T10:55:53.326Z,64.10
2022-11-26T10:58:27.885Z,64.30
2022-11-26T11:01:02.424Z,63.90
2022-11-26T11:04:06.879Z,63.80
2022-11-26T11:06:38.328Z,63.90
2022-11-26T11:09:26.882Z,63.90
2022-11-26T11:12:23.905Z,63.90
2022-11-26T11:14:52.765Z,63.40
2022-11-26T11:17:31.939Z,64.10
2022-11-26T11:20:10.432Z,63.50
2022-11-26T11:22:39.008Z,63.70
2022-11-26T11:25:23.677Z,63.70
2022-11-26T11:27:53.153Z,63.60
2022-11-26T11:30:28.717Z,63.60
2022-11-26T11:33:00.399Z,63.70
2022-11-26T11:35:31.045Z,63.70
2022-11-26T11:37:59.975Z,63.80
2022-11-26T11:40:33.349Z,63.60
2022-11-26T11:43:04.425Z,63.30
2022-11-26T11:45:35.455Z,63.60
2022-11-26T11:48:15.974Z,63.50
2022-11-26T11:50:50.152Z,64.10
2022-11-26T11:53:34.410Z,63.90
2022-11-26T11:56:27.787Z,64.10
2022-11-26T11:59:25.472Z,63.90
2022-11-26T12:02:17.897Z,63.60
2022-11-26T12:04:58.210Z,63.60
2022-11-26T12:07:42.794Z,63.70
2022-11-26T12:10:15.796Z,63.50
2022-11-26T12:12:48.828Z,63.40
2022-11-26T12:15:24.546Z,63.20
2022-11-26T12:18:00.745Z,63.30
2022-11-26T12:20:33.153Z,63.20
2022-11-26T12:23:16.030Z,63.30
2022-11-26T12:25:50.838Z,63.40
2022-11-26T12:28:25.418Z,63.20
2022-11-26T12:31:01.653Z,63.10
2022-11-26T12:33:35.529Z,62.90
2022-11-26T12:36:13.820Z,61.90
2022-11-26T12:38:47.581Z,61.90
2022-11-26T12:41:20.324Z,61.40
2022-11-26T12:43:54.212Z,61.10
2022-11-26T12:46:27.679Z,61.10
2022-11-26T12:49:04.615Z,60.90
2022-11-26T12:51:39.821Z,61.20
2022-11-26T12:54:17.192Z,61.10
2022-11-26T12:56:56.800Z,60.70
2022-11-26T12:59:30.715Z,60.50
2022-11-26T13:01:59.342Z,60.50
2022-11-26T13:04:37.529Z,60.50
2022-11-26T13:07:15.375Z,59.90
2022-11-26T13:09:59.274Z,60.30
2022-11-26T13:12:38.671Z,59.90
2022-11-26T13:15:19.173Z,59.70
2022-11-26T13:17:51.671Z,59.80
2022-11-26T13:20:52.039Z,59.30
2022-11-26T13:23:38.161Z,60.60
2022-11-26T13:26:17.533Z,60.40
2022-11-26T13:29:05.340Z,60.30
2022-11-26T13:31:53.102Z,60.00
2022-11-26T13:34:36.746Z,59.70
2022-11-26T13:37:21.527Z,60.00
2022-11-26T13:40:31.870Z,59.80
2022-11-26T13:43:27.973Z,60.00
2022-11-26T13:46:10.701Z,59.50
2022-11-26T13:48:48.922Z,59.20
2022-11-26T13:51:25.577Z,59.40
2022-11-26T13:54:02.022Z,59.30
2022-11-26T13:56:35.094Z,59.40
2022-11-26T13:59:07.269Z,59.70
2022-11-26T14:01:40.320Z,59.80
2022-11-26T14:04:11.808Z,59.80
2022-11-26T14:07:00.791Z,59.30
2022-11-26T14:09:51.437Z,59.70
2022-11-26T14:12:21.869Z,59.40
2022-11-26T14:14:50.845Z,59.40
2022-11-26T14:17:21.586Z,59.40
2022-11-26T14:20:11.451Z,59.20
2022-11-26T14:22:40.683Z,59.50
2022-11-26T14:25:14.114Z,59.00
2022-11-26T14:27:49.697Z,59.50
2022-11-26T14:30:23.150Z,59.10
2022-11-26T14:33:09.506Z,59.30
2022-11-26T14:35:40.204Z,59.70
2022-11-26T14:38:25.224Z,59.40
2022-11-26T14:41:01.215Z,59.10
2022-11-26T14:43:30.184Z,60.00
2022-11-26T14:46:05.129Z,59.70
2022-11-26T14:48:36.472Z,59.60
2022-11-26T14:51:09.384Z,59.40
2022-11-26T14:53:46.262Z,59.50
2022-11-26T14:56:14.732Z,59.70
2022-11-26T14:58:54.178Z,59.60
2022-11-26T15:01:24.622Z,59.40
2022-11-26T15:03:58.862Z,59.40
2022-11-26T15:06:34.875Z,59.90
2022-11-26T15:09:15.189Z,59.90
2022-11-26T15:11:50.921Z,59.70
2022-11-26T15:14:25.942Z,59.60
2022-11-26T15:17:02.619Z,59.60
2022-11-26T15:19:37.730Z,59.90
2022-11-26T15:22:19.041Z,59.80
2022-11-26T15:24:51.086Z,59.50
2022-11-26T15:27:31.130Z,60.00
2022-11-26T15:29:59.645Z,60.00
2022-11-26T15:32:30.400Z,60.30
2022-11-26T15:35:02.089Z,59.80
2022-11-26T15:37:31.964Z,59.90
2022-11-26T15:40:14.981Z,59.90
2022-11-26T15:42:43.445Z,60.00
2022-11-26T15:45:17.281Z,60.70
2022-11-26T15:47:48.947Z,60.50
2022-11-26T15:50:25.986Z,60.30
2022-11-26T15:53:00.593Z,60.70
2022-11-26T15:55:33.403Z,60.50
2022-11-26T15:58:06.169Z,60.40
2022-11-26T16:00:39.794Z,60.60
2022-11-26T16:03:37.544Z,61.00
2022-11-26T16:06:08.641Z,61.00
2022-11-26T16:08:42.997Z,61.00
2022-11-26T16:11:23.663Z,61.20
2022-11-26T16:13:52.151Z,61.20
2022-11-26T16:16:22.792Z,61.30
2022-11-26T16:18:55.026Z,61.10
2022-11-26T16:21:28.907Z,61.40
2022-11-26T16:24:01.521Z,61.30
2022-11-26T16:26:30.418Z,61.90
2022-11-26T16:28:58.908Z,61.50
2022-11-26T16:31:27.298Z,61.80
2022-11-26T16:33:56.634Z,61.90
2022-11-26T16:36:29.518Z,61.50
2022-11-26T16:38:59.836Z,62.00
2022-11-26T16:41:28.403Z,61.60
2022-11-26T16:43:58.588Z,61.90
2022-11-26T16:46:30.194Z,62.10
2022-11-26T16:48:59.330Z,62.20
2022-11-26T16:51:28.016Z,62.00
2022-11-26T16:53:56.712Z,62.00
2022-11-26T16:56:29.475Z,62.40
2022-11-26T16:59:00.086Z,62.40
2022-11-26T17:01:29.953Z,62.50
2022-11-26T17:04:03.223Z,62.70
2022-11-26T17:06:33.918Z,62.70
2022-11-26T17:09:05.596Z,62.40
2022-11-26T17:11:36.843Z,62.40
2022-11-26T17:14:05.307Z,62.70
2022-11-26T17:16:34.725Z,62.60
2022-11-26T17:19:08.748Z,62.40
2022-11-26T17:21:37.138Z,62.80
2022-11-26T17:24:05.954Z,62.60
2022-11-26T17:26:36.183Z,62.70
2022-11-26T17:29:05.204Z,62.70
2022-11-26T17:31:33.606Z,62.70
2022-11-26T17:34:02.078Z,63.00
2022-11-26T17:36:36.617Z,62.70
2022-11-26T17:39:05.691Z,62.70
2022-11-26T17:41:40.694Z,62.70
2022-11-26T17:44:09.649Z,62.40
2022-11-26T17:46:54.518Z,62.70
2022-11-26T17:49:26.992Z,62.30
2022-11-26T17:51:57.938Z,62.70
2022-11-26T17:54:26.667Z,62.50
2022-11-26T17:57:01.258Z,62.60
2022-11-26T17:59:30.260Z,62.90
2022-11-26T18:01:58.944Z,62.70
2022-11-26T18:04:28.119Z,62.70
2022-11-26T18:07:03.986Z,62.60
2022-11-26T18:09:32.970Z,62.80
2022-11-26T18:12:03.829Z,62.80
2022-11-26T18:14:35.661Z,62.60
2022-11-26T18:17:05.420Z,62.90
2022-11-26T18:19:33.937Z,62.90
2022-11-26T18:22:02.758Z,62.90
2022-11-26T18:24:32.207Z,63.00
2022-11-26T18:27:02.560Z,62.80
2022-11-26T18:29:31.493Z,62.80
2022-11-26T18:32:00.520Z,62.80
2022-11-26T18:34:29.004Z,63.30
2022-11-26T18:36:57.493Z,62.90
2022-11-26T18:39:26.008Z,63.00
2022-11-26T18:42:00.708Z,63.10
2022-11-26T18:44:34.831Z,63.40
2022-11-26T18:47:09.132Z,63.10
2022-11-26T18:49:42.205Z,63.50
2022-11-26T18:52:13.108Z,63.00
2022-11-26T18:54:41.561Z,63.20
2022-11-26T18:57:10.127Z,63.40
2022-11-26T18:59:40.241Z,63.10
2022-11-26T19:02:10.149Z,63.10
2022-11-26T19:04:39.296Z,62.80
2022-11-26T19:07:07.569Z,62.60
2022-11-26T19:09:36.320Z,62.70
2022-11-26T19:12:04.909Z,62.70
2022-11-26T19:14:35.027Z,62.60
2022-11-26T19:17:04.673Z,62.60
2022-11-26T19:19:33.155Z,62.70
2022-11-26T19:22:02.070Z,62.60
2022-11-26T19:24:31.487Z,62.80
2022-11-26T19:26:59.891Z,62.60
2022-11-26T19:29:28.710Z,62.60
2022-11-26T19:31:57.096Z,62.70
2022-11-26T19:34:26.964Z,62.50
2022-11-26T19:36:57.724Z,62.90
2022-11-26T19:39:26.320Z,62.90
2022-11-26T19:41:55.297Z,62.70
2022-11-26T19:44:24.062Z,62.50
2022-11-26T19:46:52.554Z,62.50
2022-11-26T19:49:21.099Z,62.70
2022-11-26T19:51:50.836Z,63.20
2022-11-26T19:54:19.449Z,62.70
2022-11-26T19:56:48.649Z,62.90
2022-11-26T19:59:19.708Z,63.00
2022-11-26T20:01:49.238Z,62.40
2022-11-26T20:04:19.533Z,62.40
2022-11-26T20:06:48.592Z,62.20
2022-11-26T20:09:18.184Z,62.20
2022-11-26T20:11:47.503Z,62.50
2022-11-26T20:14:16.466Z,62.20
2022-11-26T20:16:46.043Z,62.30
2022-11-26T20:19:15.327Z,62.10
2022-11-26T20:21:43.707Z,62.10
2022-11-26T20:24:15.842Z,61.70
2022-11-26T20:26:48.583Z,62.10
2022-11-26T20:29:18.333Z,62.10
2022-11-26T20:31:51.715Z,62.00
2022-11-26T20:34:22.053Z,62.30
2022-11-26T20:36:51.021Z,62.00
2022-11-26T20:39:21.732Z,61.80
2022-11-26T20:41:51.972Z,61.70
2022-11-26T20:44:20.563Z,61.60
2022-11-26T20:46:49.007Z,61.70
2022-11-26T20:49:17.596Z,61.50
2022-11-26T20:51:46.143Z,61.60
2022-11-26T20:54:14.831Z,61.70
2022-11-26T20:56:45.692Z,61.70
2022-11-26T20:59:15.563Z,61.80
2022-11-26T21:01:44.350Z,61.80
2022-11-26T21:04:13.009Z,61.70
2022-11-26T21:06:43.664Z,61.70
2022-11-26T21:09:14.629Z,61.60
2022-11-26T21:11:44.368Z,61.60
2022-11-26T21:14:15.160Z,61.80
2022-11-26T21:16:45.676Z,61.40
2022-11-26T21:19:14.647Z,61.70
2022-11-26T21:21:43.491Z,61.60
2022-11-26T21:24:11.988Z,61.30
2022-11-26T21:26:41.364Z,61.40
2022-11-26T21:29:09.955Z,61.80
2022-11-26T21:31:38.859Z,61.50
2022-11-26T21:34:11.620Z,61.60
2022-11-26T21:36:42.693Z,61.70
2022-11-26T21:39:15.500Z,61.40
2022-11-26T21:41:44.139Z,61.90
2022-11-26T21:44:13.247Z,61.40
2022-11-26T21:46:41.854Z,61.70
2022-11-26T21:49:11.705Z,61.60
2022-11-26T21:51:40.923Z,61.30
2022-11-26T21:54:10.350Z,61.60
2022-11-26T21:56:38.782Z,61.60
2022-11-26T21:59:07.508Z,61.10
2022-11-26T22:01:38.099Z,61.50
2022-11-26T22:04:09.929Z,61.50
2022-11-26T22:06:40.238Z,61.60
2022-11-26T22:09:09.753Z,61.10
2022-11-26T22:11:41.266Z,61.40
2022-11-26T22:14:11.437Z,61.40
2022-11-26T22:16:41.799Z,61.20
2022-11-26T22:19:11.943Z,61.10
2022-11-26T22:21:43.109Z,61.30
2022-11-26T22:24:15.416Z,61.20
2022-11-26T22:26:44.915Z,61.40
2022-11-26T22:29:14.762Z,61.30
2022-11-26T22:31:44.389Z,60.80
2022-11-26T22:34:15.823Z,61.30
2022-11-26T22:36:46.803Z,61.20
2022-11-26T22:39:17.377Z,61.10
2022-11-26T22:41:52.666Z,61.30
2022-11-26T22:44:21.337Z,61.10
2022-11-26T22:46:49.688Z,61.30
2022-11-26T22:49:19.065Z,61.30
2022-11-26T22:51:49.138Z,61.30
2022-11-26T22:54:18.362Z,61.40
2022-11-26T22:56:46.882Z,61.30
2022-11-26T22:59:16.088Z,61.60
2022-11-26T23:01:44.590Z,61.00
2022-11-26T23:04:13.188Z,61.30
2022-11-26T23:06:42.110Z,61.20
2022-11-26T23:09:13.424Z,61.20
2022-11-26T23:11:45.014Z,61.30
2022-11-26T23:14:13.734Z,61.30
2022-11-26T23:16:43.936Z,61.40
2022-11-26T23:19:15.513Z,61.50
2022-11-26T23:21:47.102Z,61.40
2022-11-26T23:24:17.774Z,61.40
2022-11-26T23:26:47.969Z,61.60
2022-11-26T23:29:17.249Z,61.50
2022-11-26T23:31:46.219Z,61.20
2022-11-26T23:34:15.599Z,61.30
2022-11-26T23:36:44.731Z,61.20
2022-11-26T23:39:14.370Z,60.90
2022-11-26T23:41:44.679Z,61.30
2022-11-26T23:44:13.248Z,61.30
2022-11-26T23:46:41.788Z,61.20
2022-11-26T23:49:10.496Z,61.20
2022-11-26T23:51:38.903Z,61.30
2022-11-26T23:54:07.578Z,61.30
2022-11-26T23:56:36.742Z,61.40
2022-11-26T23:59:06.823Z,61.00
